LPS weather

La Ponderosa Airport
Puerto Wilches, Santander Department, Colombia

Public forecast

Using degrees Celsius for public forecast. Weather courtesy of forecast.io.

METAR (pilot weather report)

Closest report is YariguĂ­es Airport, 15.0 nm (27.8 km) S. Retrieved 2019/06/25 12:00 UTC (53 minutes ago):

SKEJ 251200Z VRB02KT 9999 SCT010 SCT070 24/23 A2993

TAF (pilot weather forecast)

Closest forecast is Palonegro Airport, 39.0 nm (72.2 km) ESE. Retrieved 2019/06/25 12:42 UTC (11 minutes ago):

TAF TAF SKBG 251030Z 2512/2612 00000KT 9999 SCT010 BKN060 TEMPO 2512/2515 2000 DZ BCFG BKN006 BECMG 2515/2517 32008KT BECMG 2600/2602 00000KT TX27/2519Z TN19/2611Z